sensor_id;sensor_type;location;lat;lon;timestamp;P1;durP1;ratioP1;P2;durP2;ratioP2
39890;SDS011;25564;53.312;9.790;2023-03-08T00:01:23;5.10;;;1.80;;
39890;SDS011;25564;53.312;9.790;2023-03-08T00:03:56;7.07;;;2.40;;
39890;SDS011;25564;53.312;9.790;2023-03-08T00:06:28;3.87;;;1.97;;
39890;SDS011;25564;53.312;9.790;2023-03-08T00:09:00;9.50;;;2.77;;
39890;SDS011;25564;53.312;9.790;2023-03-08T00:11:32;7.93;;;2.57;;
39890;SDS011;25564;53.312;9.790;2023-03-08T00:14:03;5.43;;;2.20;;
39890;SDS011;25564;53.312;9.790;2023-03-08T00:16:34;4.73;;;2.23;;
39890;SDS011;25564;53.312;9.790;2023-03-08T00:19:05;4.83;;;2.27;;
39890;SDS011;25564;53.312;9.790;2023-03-08T00:21:37;4.43;;;2.30;;
39890;SDS011;25564;53.312;9.790;2023-03-08T00:24:08;4.97;;;2.53;;
39890;SDS011;25564;53.312;9.790;2023-03-08T00:26:42;6.67;;;2.27;;
39890;SDS011;25564;53.312;9.790;2023-03-08T00:29:13;4.10;;;2.10;;
39890;SDS011;25564;53.312;9.790;2023-03-08T00:31:45;4.07;;;1.97;;
39890;SDS011;25564;53.312;9.790;2023-03-08T00:34:16;7.30;;;2.37;;
39890;SDS011;25564;53.312;9.790;2023-03-08T00:36:48;8.20;;;2.80;;
39890;SDS011;25564;53.312;9.790;2023-03-08T00:39:19;6.53;;;2.47;;
39890;SDS011;25564;53.312;9.790;2023-03-08T00:41:50;3.10;;;2.13;;
39890;SDS011;25564;53.312;9.790;2023-03-08T00:44:22;6.53;;;2.43;;
39890;SDS011;25564;53.312;9.790;2023-03-08T00:46:53;5.57;;;2.30;;
39890;SDS011;25564;53.312;9.790;2023-03-08T00:49:25;7.33;;;2.70;;
39890;SDS011;25564;53.312;9.790;2023-03-08T00:51:56;5.83;;;2.40;;
39890;SDS011;25564;53.312;9.790;2023-03-08T00:54:31;4.73;;;2.67;;
39890;SDS011;25564;53.312;9.790;2023-03-08T00:57:02;6.03;;;2.60;;
39890;SDS011;25564;53.312;9.790;2023-03-08T00:59:33;6.53;;;2.90;;
39890;SDS011;25564;53.312;9.790;2023-03-08T01:02:05;14.10;;;3.73;;
39890;SDS011;25564;53.312;9.790;2023-03-08T01:04:36;3.97;;;2.30;;
39890;SDS011;25564;53.312;9.790;2023-03-08T01:07:08;6.27;;;2.70;;
39890;SDS011;25564;53.312;9.790;2023-03-08T01:09:39;5.53;;;2.10;;
39890;SDS011;25564;53.312;9.790;2023-03-08T01:12:10;5.60;;;2.57;;
39890;SDS011;25564;53.312;9.790;2023-03-08T01:14:42;6.77;;;2.57;;
39890;SDS011;25564;53.312;9.790;2023-03-08T01:17:13;7.40;;;3.40;;
39890;SDS011;25564;53.312;9.790;2023-03-08T01:19:44;5.93;;;2.77;;
39890;SDS011;25564;53.312;9.790;2023-03-08T01:22:16;5.10;;;2.47;;
39890;SDS011;25564;53.312;9.790;2023-03-08T01:24:47;10.37;;;2.90;;
39890;SDS011;25564;53.312;9.790;2023-03-08T01:27:19;7.10;;;3.07;;
39890;SDS011;25564;53.312;9.790;2023-03-08T01:29:50;14.60;;;3.33;;
39890;SDS011;25564;53.312;9.790;2023-03-08T01:32:21;7.33;;;3.40;;
39890;SDS011;25564;53.312;9.790;2023-03-08T01:34:53;8.00;;;4.00;;
39890;SDS011;25564;53.312;9.790;2023-03-08T01:37:25;7.43;;;4.13;;
39890;SDS011;25564;53.312;9.790;2023-03-08T01:39:56;8.63;;;4.00;;
39890;SDS011;25564;53.312;9.790;2023-03-08T01:42:28;8.97;;;4.10;;
39890;SDS011;25564;53.312;9.790;2023-03-08T01:45:00;5.37;;;3.37;;
39890;SDS011;25564;53.312;9.790;2023-03-08T01:47:33;7.77;;;3.47;;
39890;SDS011;25564;53.312;9.790;2023-03-08T01:50:07;7.87;;;3.37;;
39890;SDS011;25564;53.312;9.790;2023-03-08T01:52:47;9.47;;;3.70;;
39890;SDS011;25564;53.312;9.790;2023-03-08T01:55:21;9.37;;;4.63;;
39890;SDS011;25564;53.312;9.790;2023-03-08T01:57:53;9.90;;;4.70;;
39890;SDS011;25564;53.312;9.790;2023-03-08T02:00:26;9.73;;;4.63;;
39890;SDS011;25564;53.312;9.790;2023-03-08T02:03:01;14.10;;;5.53;;
39890;SDS011;25564;53.312;9.790;2023-03-08T02:05:37;11.90;;;5.87;;
39890;SDS011;25564;53.312;9.790;2023-03-08T02:08:12;17.65;;;5.47;;
39890;SDS011;25564;53.312;9.790;2023-03-08T02:10:43;11.93;;;5.47;;
39890;SDS011;25564;53.312;9.790;2023-03-08T02:13:14;11.70;;;6.40;;
39890;SDS011;25564;53.312;9.790;2023-03-08T02:15:47;10.70;;;5.50;;
39890;SDS011;25564;53.312;9.790;2023-03-08T02:18:21;12.30;;;5.87;;
39890;SDS011;25564;53.312;9.790;2023-03-08T02:20:53;12.53;;;6.10;;
39890;SDS011;25564;53.312;9.790;2023-03-08T02:23:24;15.57;;;7.47;;
39890;SDS011;25564;53.312;9.790;2023-03-08T02:25:57;19.37;;;8.07;;
39890;SDS011;25564;53.312;9.790;2023-03-08T02:31:04;15.27;;;7.37;;
39890;SDS011;25564;53.312;9.790;2023-03-08T02:33:36;18.07;;;8.27;;
39890;SDS011;25564;53.312;9.790;2023-03-08T02:36:07;23.10;;;8.47;;
39890;SDS011;25564;53.312;9.790;2023-03-08T02:38:39;19.37;;;7.70;;
39890;SDS011;25564;53.312;9.790;2023-03-08T02:41:11;18.03;;;7.27;;
39890;SDS011;25564;53.312;9.790;2023-03-08T02:43:42;17.57;;;7.87;;
39890;SDS011;25564;53.312;9.790;2023-03-08T02:46:13;18.87;;;7.13;;
39890;SDS011;25564;53.312;9.790;2023-03-08T02:48:45;18.87;;;7.67;;
39890;SDS011;25564;53.312;9.790;2023-03-08T02:51:16;22.93;;;7.83;;
39890;SDS011;25564;53.312;9.790;2023-03-08T02:53:47;13.40;;;6.50;;
39890;SDS011;25564;53.312;9.790;2023-03-08T02:56:19;16.87;;;7.77;;
39890;SDS011;25564;53.312;9.790;2023-03-08T02:58:50;17.43;;;7.87;;
39890;SDS011;25564;53.312;9.790;2023-03-08T03:01:22;16.30;;;7.80;;
39890;SDS011;25564;53.312;9.790;2023-03-08T03:03:53;19.83;;;7.90;;
39890;SDS011;25564;53.312;9.790;2023-03-08T03:06:25;17.57;;;7.73;;
39890;SDS011;25564;53.312;9.790;2023-03-08T03:08:56;20.23;;;8.87;;
39890;SDS011;25564;53.312;9.790;2023-03-08T03:11:28;19.60;;;8.37;;
39890;SDS011;25564;53.312;9.790;2023-03-08T03:13:59;16.97;;;8.33;;
39890;SDS011;25564;53.312;9.790;2023-03-08T03:16:31;16.57;;;8.37;;
39890;SDS011;25564;53.312;9.790;2023-03-08T03:19:02;14.67;;;7.97;;
39890;SDS011;25564;53.312;9.790;2023-03-08T03:21:34;18.10;;;7.20;;
39890;SDS011;25564;53.312;9.790;2023-03-08T03:24:05;11.63;;;6.10;;
39890;SDS011;25564;53.312;9.790;2023-03-08T03:26:37;11.97;;;5.83;;
39890;SDS011;25564;53.312;9.790;2023-03-08T03:29:09;11.73;;;6.07;;
39890;SDS011;25564;53.312;9.790;2023-03-08T03:31:40;12.10;;;6.03;;
39890;SDS011;25564;53.312;9.790;2023-03-08T03:34:11;9.63;;;5.97;;
39890;SDS011;25564;53.312;9.790;2023-03-08T03:36:43;14.40;;;6.60;;
39890;SDS011;25564;53.312;9.790;2023-03-08T03:39:14;10.37;;;5.83;;
39890;SDS011;25564;53.312;9.790;2023-03-08T03:41:45;9.30;;;5.17;;
39890;SDS011;25564;53.312;9.790;2023-03-08T03:44:17;14.20;;;6.00;;
39890;SDS011;25564;53.312;9.790;2023-03-08T03:46:48;13.60;;;5.90;;
39890;SDS011;25564;53.312;9.790;2023-03-08T03:49:19;7.77;;;5.10;;
39890;SDS011;25564;53.312;9.790;2023-03-08T03:51:51;9.60;;;5.70;;
39890;SDS011;25564;53.312;9.790;2023-03-08T03:54:22;12.53;;;5.67;;
39890;SDS011;25564;53.312;9.790;2023-03-08T03:56:53;7.40;;;4.53;;
39890;SDS011;25564;53.312;9.790;2023-03-08T03:59:28;9.30;;;4.60;;
39890;SDS011;25564;53.312;9.790;2023-03-08T04:01:59;10.83;;;5.03;;
39890;SDS011;25564;53.312;9.790;2023-03-08T04:04:30;9.37;;;4.63;;
39890;SDS011;25564;53.312;9.790;2023-03-08T04:07:02;12.43;;;4.37;;
39890;SDS011;25564;53.312;9.790;2023-03-08T04:09:34;10.43;;;4.83;;
39890;SDS011;25564;53.312;9.790;2023-03-08T04:12:05;8.70;;;5.13;;
39890;SDS011;25564;53.312;9.790;2023-03-08T04:14:37;7.93;;;5.17;;
39890;SDS011;25564;53.312;9.790;2023-03-08T04:17:10;13.90;;;5.10;;
39890;SDS011;25564;53.312;9.790;2023-03-08T04:19:41;16.23;;;5.53;;
39890;SDS011;25564;53.312;9.790;2023-03-08T04:22:12;10.10;;;4.40;;
39890;SDS011;25564;53.312;9.790;2023-03-08T04:24:44;13.63;;;5.37;;
39890;SDS011;25564;53.312;9.790;2023-03-08T04:27:15;12.57;;;5.57;;
39890;SDS011;25564;53.312;9.790;2023-03-08T04:29:46;14.90;;;5.73;;
39890;SDS011;25564;53.312;9.790;2023-03-08T04:32:18;9.90;;;4.40;;
39890;SDS011;25564;53.312;9.790;2023-03-08T04:34:49;10.43;;;4.37;;
39890;SDS011;25564;53.312;9.790;2023-03-08T04:37:20;9.80;;;5.23;;
39890;SDS011;25564;53.312;9.790;2023-03-08T04:39:52;10.97;;;4.93;;
39890;SDS011;25564;53.312;9.790;2023-03-08T04:42:23;13.10;;;5.63;;
39890;SDS011;25564;53.312;9.790;2023-03-08T04:44:54;12.13;;;5.17;;
39890;SDS011;25564;53.312;9.790;2023-03-08T04:47:26;12.77;;;5.93;;
39890;SDS011;25564;53.312;9.790;2023-03-08T04:49:57;12.23;;;5.30;;
39890;SDS011;25564;53.312;9.790;2023-03-08T04:52:28;11.63;;;6.00;;
39890;SDS011;25564;53.312;9.790;2023-03-08T04:54:59;12.10;;;5.00;;
39890;SDS011;25564;53.312;9.790;2023-03-08T04:57:31;11.40;;;5.30;;
39890;SDS011;25564;53.312;9.790;2023-03-08T05:00:02;7.37;;;3.97;;
39890;SDS011;25564;53.312;9.790;2023-03-08T05:02:35;10.40;;;4.93;;
39890;SDS011;25564;53.312;9.790;2023-03-08T05:05:07;10.47;;;5.10;;
39890;SDS011;25564;53.312;9.790;2023-03-08T05:07:38;9.17;;;4.50;;
39890;SDS011;25564;53.312;9.790;2023-03-08T05:10:10;8.67;;;4.00;;
39890;SDS011;25564;53.312;9.790;2023-03-08T05:12:41;8.80;;;4.63;;
39890;SDS011;25564;53.312;9.790;2023-03-08T05:15:13;6.73;;;3.67;;
39890;SDS011;25564;53.312;9.790;2023-03-08T05:17:44;8.13;;;4.90;;
39890;SDS011;25564;53.312;9.790;2023-03-08T05:20:16;10.73;;;4.40;;
39890;SDS011;25564;53.312;9.790;2023-03-08T05:22:49;8.87;;;4.90;;
39890;SDS011;25564;53.312;9.790;2023-03-08T05:25:28;7.93;;;4.43;;
39890;SDS011;25564;53.312;9.790;2023-03-08T05:28:01;10.23;;;4.57;;
39890;SDS011;25564;53.312;9.790;2023-03-08T05:30:32;9.27;;;4.87;;
39890;SDS011;25564;53.312;9.790;2023-03-08T05:33:04;9.80;;;5.00;;
39890;SDS011;25564;53.312;9.790;2023-03-08T05:35:35;8.53;;;4.50;;
39890;SDS011;25564;53.312;9.790;2023-03-08T05:38:06;8.00;;;4.37;;
39890;SDS011;25564;53.312;9.790;2023-03-08T05:40:38;8.37;;;4.07;;
39890;SDS011;25564;53.312;9.790;2023-03-08T05:43:09;9.87;;;5.60;;
39890;SDS011;25564;53.312;9.790;2023-03-08T05:45:40;10.40;;;4.40;;
39890;SDS011;25564;53.312;9.790;2023-03-08T05:48:12;9.17;;;4.50;;
39890;SDS011;25564;53.312;9.790;2023-03-08T05:50:43;11.03;;;4.67;;
39890;SDS011;25564;53.312;9.790;2023-03-08T05:53:14;7.60;;;4.10;;
39890;SDS011;25564;53.312;9.790;2023-03-08T05:55:46;11.73;;;4.87;;
39890;SDS011;25564;53.312;9.790;2023-03-08T05:58:17;9.97;;;4.77;;
39890;SDS011;25564;53.312;9.790;2023-03-08T06:00:49;12.40;;;4.37;;
39890;SDS011;25564;53.312;9.790;2023-03-08T06:03:20;11.23;;;5.17;;
39890;SDS011;25564;53.312;9.790;2023-03-08T06:05:51;10.17;;;4.97;;
39890;SDS011;25564;53.312;9.790;2023-03-08T06:08:22;8.10;;;4.47;;
39890;SDS011;25564;53.312;9.790;2023-03-08T06:10:54;10.10;;;4.83;;
39890;SDS011;25564;53.312;9.790;2023-03-08T06:13:25;10.03;;;5.00;;
39890;SDS011;25564;53.312;9.790;2023-03-08T06:15:57;10.70;;;4.93;;
39890;SDS011;25564;53.312;9.790;2023-03-08T06:18:30;9.20;;;4.80;;
39890;SDS011;25564;53.312;9.790;2023-03-08T06:21:06;14.00;;;5.10;;
39890;SDS011;25564;53.312;9.790;2023-03-08T06:23:42;10.33;;;4.53;;
39890;SDS011;25564;53.312;9.790;2023-03-08T06:26:15;12.50;;;5.63;;
39890;SDS011;25564;53.312;9.790;2023-03-08T06:28:47;9.07;;;5.30;;
39890;SDS011;25564;53.312;9.790;2023-03-08T06:31:18;10.17;;;4.80;;
39890;SDS011;25564;53.312;9.790;2023-03-08T06:33:50;9.53;;;4.80;;
39890;SDS011;25564;53.312;9.790;2023-03-08T06:36:22;16.27;;;5.40;;
39890;SDS011;25564;53.312;9.790;2023-03-08T06:38:53;9.77;;;4.83;;
39890;SDS011;25564;53.312;9.790;2023-03-08T06:41:24;8.83;;;4.77;;
39890;SDS011;25564;53.312;9.790;2023-03-08T06:43:56;13.67;;;5.17;;
39890;SDS011;25564;53.312;9.790;2023-03-08T06:46:27;9.20;;;5.10;;
39890;SDS011;25564;53.312;9.790;2023-03-08T06:48:59;10.63;;;5.10;;
39890;SDS011;25564;53.312;9.790;2023-03-08T06:51:31;12.67;;;5.23;;
39890;SDS011;25564;53.312;9.790;2023-03-08T06:54:02;9.27;;;4.67;;
39890;SDS011;25564;53.312;9.790;2023-03-08T06:56:34;9.13;;;5.10;;
39890;SDS011;25564;53.312;9.790;2023-03-08T06:59:05;9.47;;;4.80;;
39890;SDS011;25564;53.312;9.790;2023-03-08T07:01:37;11.87;;;5.37;;
39890;SDS011;25564;53.312;9.790;2023-03-08T07:04:08;9.63;;;5.17;;
39890;SDS011;25564;53.312;9.790;2023-03-08T07:06:39;9.53;;;4.80;;
39890;SDS011;25564;53.312;9.790;2023-03-08T07:09:11;10.17;;;4.73;;
39890;SDS011;25564;53.312;9.790;2023-03-08T07:11:43;9.20;;;4.47;;
39890;SDS011;25564;53.312;9.790;2023-03-08T07:14:15;16.70;;;5.37;;
39890;SDS011;25564;53.312;9.790;2023-03-08T07:16:46;9.67;;;4.80;;
39890;SDS011;25564;53.312;9.790;2023-03-08T07:19:18;12.13;;;5.47;;
39890;SDS011;25564;53.312;9.790;2023-03-08T07:21:50;9.40;;;4.40;;
39890;SDS011;25564;53.312;9.790;2023-03-08T07:24:21;13.03;;;5.10;;
39890;SDS011;25564;53.312;9.790;2023-03-08T07:26:52;10.80;;;5.37;;
39890;SDS011;25564;53.312;9.790;2023-03-08T07:29:23;14.97;;;5.27;;
39890;SDS011;25564;53.312;9.790;2023-03-08T07:31:55;10.87;;;4.97;;
39890;SDS011;25564;53.312;9.790;2023-03-08T07:34:26;8.33;;;4.30;;
39890;SDS011;25564;53.312;9.790;2023-03-08T07:36:57;16.50;;;5.10;;
39890;SDS011;25564;53.312;9.790;2023-03-08T07:39:29;8.90;;;4.77;;
39890;SDS011;25564;53.312;9.790;2023-03-08T07:42:00;10.40;;;5.00;;
39890;SDS011;25564;53.312;9.790;2023-03-08T07:44:31;8.10;;;4.40;;
39890;SDS011;25564;53.312;9.790;2023-03-08T07:47:06;10.07;;;4.63;;
39890;SDS011;25564;53.312;9.790;2023-03-08T07:49:38;9.67;;;4.60;;
39890;SDS011;25564;53.312;9.790;2023-03-08T07:52:09;9.30;;;4.80;;
39890;SDS011;25564;53.312;9.790;2023-03-08T07:54:41;11.27;;;5.47;;
39890;SDS011;25564;53.312;9.790;2023-03-08T07:57:13;9.17;;;4.47;;
39890;SDS011;25564;53.312;9.790;2023-03-08T07:59:45;13.57;;;5.40;;
39890;SDS011;25564;53.312;9.790;2023-03-08T08:02:16;11.90;;;5.27;;
39890;SDS011;25564;53.312;9.790;2023-03-08T08:04:48;11.20;;;4.67;;
39890;SDS011;25564;53.312;9.790;2023-03-08T08:07:20;10.97;;;5.37;;
39890;SDS011;25564;53.312;9.790;2023-03-08T08:09:52;8.57;;;4.43;;
39890;SDS011;25564;53.312;9.790;2023-03-08T08:12:24;9.47;;;4.80;;
39890;SDS011;25564;53.312;9.790;2023-03-08T08:14:55;9.93;;;4.67;;
39890;SDS011;25564;53.312;9.790;2023-03-08T08:17:26;10.73;;;4.70;;
39890;SDS011;25564;53.312;9.790;2023-03-08T08:19:58;10.37;;;4.90;;
39890;SDS011;25564;53.312;9.790;2023-03-08T08:22:29;12.00;;;4.90;;
39890;SDS011;25564;53.312;9.790;2023-03-08T08:25:02;9.07;;;4.70;;
39890;SDS011;25564;53.312;9.790;2023-03-08T08:27:34;14.17;;;5.60;;
39890;SDS011;25564;53.312;9.790;2023-03-08T08:30:06;8.77;;;4.87;;
39890;SDS011;25564;53.312;9.790;2023-03-08T08:32:38;11.17;;;5.20;;
39890;SDS011;25564;53.312;9.790;2023-03-08T08:35:10;10.03;;;4.80;;
39890;SDS011;25564;53.312;9.790;2023-03-08T08:37:41;7.93;;;4.30;;
39890;SDS011;25564;53.312;9.790;2023-03-08T08:40:12;14.80;;;4.93;;
39890;SDS011;25564;53.312;9.790;2023-03-08T08:42:45;8.40;;;4.60;;
39890;SDS011;25564;53.312;9.790;2023-03-08T08:45:16;8.97;;;4.97;;
39890;SDS011;25564;53.312;9.790;2023-03-08T08:47:47;9.47;;;3.90;;
39890;SDS011;25564;53.312;9.790;2023-03-08T08:50:19;10.00;;;4.33;;
39890;SDS011;25564;53.312;9.790;2023-03-08T08:52:50;8.70;;;4.40;;
39890;SDS011;25564;53.312;9.790;2023-03-08T08:55:21;8.47;;;4.30;;
39890;SDS011;25564;53.312;9.790;2023-03-08T08:57:53;7.40;;;4.33;;
39890;SDS011;25564;53.312;9.790;2023-03-08T09:00:24;7.87;;;4.00;;
39890;SDS011;25564;53.312;9.790;2023-03-08T09:02:56;8.90;;;3.70;;
39890;SDS011;25564;53.312;9.790;2023-03-08T09:05:27;7.43;;;3.47;;
39890;SDS011;25564;53.312;9.790;2023-03-08T09:07:59;9.97;;;3.57;;
39890;SDS011;25564;53.312;9.790;2023-03-08T09:10:32;8.17;;;3.30;;
39890;SDS011;25564;53.312;9.790;2023-03-08T09:13:04;6.93;;;3.90;;
39890;SDS011;25564;53.312;9.790;2023-03-08T09:15:36;7.30;;;3.43;;
39890;SDS011;25564;53.312;9.790;2023-03-08T09:18:08;5.60;;;3.50;;
39890;SDS011;25564;53.312;9.790;2023-03-08T09:20:39;7.73;;;3.43;;
39890;SDS011;25564;53.312;9.790;2023-03-08T09:23:10;8.57;;;4.47;;
39890;SDS011;25564;53.312;9.790;2023-03-08T09:25:42;6.13;;;3.53;;
39890;SDS011;25564;53.312;9.790;2023-03-08T09:28:13;5.60;;;3.40;;
39890;SDS011;25564;53.312;9.790;2023-03-08T09:30:44;5.40;;;3.53;;
39890;SDS011;25564;53.312;9.790;2023-03-08T09:33:16;6.10;;;3.17;;
39890;SDS011;25564;53.312;9.790;2023-03-08T09:35:57;5.53;;;3.07;;
39890;SDS011;25564;53.312;9.790;2023-03-08T09:38:29;7.30;;;2.60;;
39890;SDS011;25564;53.312;9.790;2023-03-08T09:43:46;5.53;;;3.17;;
39890;SDS011;25564;53.312;9.790;2023-03-08T09:46:35;6.00;;;3.47;;
39890;SDS011;25564;53.312;9.790;2023-03-08T09:49:12;5.93;;;3.10;;
39890;SDS011;25564;53.312;9.790;2023-03-08T09:51:50;6.70;;;3.03;;
39890;SDS011;25564;53.312;9.790;2023-03-08T09:54:27;5.03;;;3.30;;
39890;SDS011;25564;53.312;9.790;2023-03-08T09:56:59;5.80;;;3.30;;
39890;SDS011;25564;53.312;9.790;2023-03-08T09:59:38;5.87;;;2.83;;
39890;SDS011;25564;53.312;9.790;2023-03-08T10:07:55;8.73;;;3.87;;
39890;SDS011;25564;53.312;9.790;2023-03-08T10:10:39;6.57;;;3.30;;
39890;SDS011;25564;53.312;9.790;2023-03-08T10:13:26;6.07;;;2.80;;
39890;SDS011;25564;53.312;9.790;2023-03-08T10:16:16;5.47;;;3.20;;
39890;SDS011;25564;53.312;9.790;2023-03-08T10:18:56;5.40;;;2.83;;
39890;SDS011;25564;53.312;9.790;2023-03-08T10:21:32;5.40;;;2.70;;
39890;SDS011;25564;53.312;9.790;2023-03-08T10:24:15;6.82;;;3.28;;
39890;SDS011;25564;53.312;9.790;2023-03-08T10:27:04;11.63;;;6.03;;
39890;SDS011;25564;53.312;9.790;2023-03-08T10:29:52;7.20;;;3.73;;
39890;SDS011;25564;53.312;9.790;2023-03-08T10:32:28;6.13;;;3.30;;
39890;SDS011;25564;53.312;9.790;2023-03-08T10:35:00;6.93;;;3.57;;
39890;SDS011;25564;53.312;9.790;2023-03-08T10:37:34;5.90;;;3.00;;
39890;SDS011;25564;53.312;9.790;2023-03-08T10:40:07;5.93;;;3.33;;
39890;SDS011;25564;53.312;9.790;2023-03-08T10:43:01;6.10;;;2.73;;
39890;SDS011;25564;53.312;9.790;2023-03-08T10:45:36;6.57;;;2.67;;
39890;SDS011;25564;53.312;9.790;2023-03-08T10:48:15;6.10;;;3.43;;
39890;SDS011;25564;53.312;9.790;2023-03-08T10:50:57;4.53;;;2.90;;
39890;SDS011;25564;53.312;9.790;2023-03-08T10:53:30;5.13;;;3.27;;
39890;SDS011;25564;53.312;9.790;2023-03-08T10:56:02;7.33;;;3.23;;
39890;SDS011;25564;53.312;9.790;2023-03-08T11:01:26;6.03;;;2.93;;
39890;SDS011;25564;53.312;9.790;2023-03-08T11:06:47;6.63;;;3.60;;
39890;SDS011;25564;53.312;9.790;2023-03-08T11:09:22;5.03;;;2.70;;
39890;SDS011;25564;53.312;9.790;2023-03-08T11:11:58;6.03;;;3.00;;
39890;SDS011;25564;53.312;9.790;2023-03-08T11:14:30;5.33;;;2.97;;
39890;SDS011;25564;53.312;9.790;2023-03-08T11:19:46;5.97;;;3.17;;
39890;SDS011;25564;53.312;9.790;2023-03-08T11:22:28;5.33;;;2.50;;
39890;SDS011;25564;53.312;9.790;2023-03-08T11:27:44;7.33;;;3.13;;
39890;SDS011;25564;53.312;9.790;2023-03-08T11:33:25;5.97;;;2.83;;
39890;SDS011;25564;53.312;9.790;2023-03-08T11:36:04;5.50;;;2.90;;
39890;SDS011;25564;53.312;9.790;2023-03-08T11:38:44;9.83;;;3.23;;
39890;SDS011;25564;53.312;9.790;2023-03-08T11:41:25;6.40;;;2.50;;
39890;SDS011;25564;53.312;9.790;2023-03-08T11:44:18;5.13;;;2.30;;
39890;SDS011;25564;53.312;9.790;2023-03-08T11:50:13;3.90;;;2.77;;
39890;SDS011;25564;53.312;9.790;2023-03-08T11:53:14;4.73;;;2.43;;
39890;SDS011;25564;53.312;9.790;2023-03-08T11:58:47;4.23;;;2.20;;
39890;SDS011;25564;53.312;9.790;2023-03-08T12:04:41;4.57;;;2.27;;
39890;SDS011;25564;53.312;9.790;2023-03-08T12:07:27;8.17;;;2.07;;
39890;SDS011;25564;53.312;9.790;2023-03-08T12:12:44;3.63;;;2.20;;
39890;SDS011;25564;53.312;9.790;2023-03-08T12:15:28;4.00;;;2.10;;
39890;SDS011;25564;53.312;9.790;2023-03-08T12:18:16;5.90;;;2.40;;
39890;SDS011;25564;53.312;9.790;2023-03-08T12:20:52;7.23;;;3.20;;
39890;SDS011;25564;53.312;9.790;2023-03-08T12:26:16;3.73;;;2.43;;
39890;SDS011;25564;53.312;9.790;2023-03-08T12:28:53;6.07;;;2.23;;
39890;SDS011;25564;53.312;9.790;2023-03-08T12:31:34;4.37;;;2.30;;
39890;SDS011;25564;53.312;9.790;2023-03-08T12:34:12;3.97;;;2.30;;
39890;SDS011;25564;53.312;9.790;2023-03-08T12:36:55;3.67;;;1.80;;
39890;SDS011;25564;53.312;9.790;2023-03-08T12:39:31;3.60;;;1.90;;
39890;SDS011;25564;53.312;9.790;2023-03-08T12:44:38;4.87;;;2.20;;
39890;SDS011;25564;53.312;9.790;2023-03-08T12:49:42;3.87;;;2.20;;
39890;SDS011;25564;53.312;9.790;2023-03-08T12:54:58;3.73;;;2.20;;
39890;SDS011;25564;53.312;9.790;2023-03-08T12:57:35;4.87;;;2.00;;
39890;SDS011;25564;53.312;9.790;2023-03-08T13:02:57;5.53;;;2.10;;
39890;SDS011;25564;53.312;9.790;2023-03-08T13:05:37;5.47;;;2.53;;
39890;SDS011;25564;53.312;9.790;2023-03-08T13:16:32;6.30;;;2.03;;
39890;SDS011;25564;53.312;9.790;2023-03-08T13:21:47;7.43;;;1.97;;
39890;SDS011;25564;53.312;9.790;2023-03-08T13:24:29;4.93;;;2.30;;
39890;SDS011;25564;53.312;9.790;2023-03-08T13:27:14;4.13;;;2.00;;
39890;SDS011;25564;53.312;9.790;2023-03-08T13:33:06;6.40;;;1.67;;
39890;SDS011;25564;53.312;9.790;2023-03-08T13:35:42;2.47;;;1.43;;
39890;SDS011;25564;53.312;9.790;2023-03-08T13:38:19;5.03;;;2.17;;
39890;SDS011;25564;53.312;9.790;2023-03-08T13:40:53;4.80;;;1.83;;
39890;SDS011;25564;53.312;9.790;2023-03-08T13:43:27;5.27;;;1.83;;
39890;SDS011;25564;53.312;9.790;2023-03-08T13:46:04;4.10;;;1.77;;
39890;SDS011;25564;53.312;9.790;2023-03-08T13:48:42;4.57;;;1.50;;
39890;SDS011;25564;53.312;9.790;2023-03-08T13:51:15;5.73;;;2.00;;
39890;SDS011;25564;53.312;9.790;2023-03-08T13:53:48;4.60;;;2.10;;
39890;SDS011;25564;53.312;9.790;2023-03-08T13:56:24;4.00;;;1.77;;
39890;SDS011;25564;53.312;9.790;2023-03-08T13:58:57;3.97;;;1.90;;
39890;SDS011;25564;53.312;9.790;2023-03-08T14:01:30;2.97;;;1.83;;
39890;SDS011;25564;53.312;9.790;2023-03-08T14:04:08;5.07;;;2.10;;
39890;SDS011;25564;53.312;9.790;2023-03-08T14:06:46;3.73;;;1.97;;
39890;SDS011;25564;53.312;9.790;2023-03-08T14:09:19;3.97;;;1.63;;
39890;SDS011;25564;53.312;9.790;2023-03-08T14:11:52;3.97;;;2.67;;
39890;SDS011;25564;53.312;9.790;2023-03-08T14:14:29;2.33;;;1.53;;
39890;SDS011;25564;53.312;9.790;2023-03-08T14:17:03;4.43;;;1.30;;
39890;SDS011;25564;53.312;9.790;2023-03-08T14:19:37;1.73;;;1.17;;
39890;SDS011;25564;53.312;9.790;2023-03-08T14:22:14;2.87;;;1.13;;
39890;SDS011;25564;53.312;9.790;2023-03-08T14:25:18;2.97;;;1.13;;
39890;SDS011;25564;53.312;9.790;2023-03-08T14:27:52;4.32;;;1.52;;
39890;SDS011;25564;53.312;9.790;2023-03-08T14:30:25;5.83;;;1.67;;
39890;SDS011;25564;53.312;9.790;2023-03-08T14:35:36;2.33;;;1.47;;
39890;SDS011;25564;53.312;9.790;2023-03-08T14:38:13;3.00;;;1.20;;
39890;SDS011;25564;53.312;9.790;2023-03-08T14:40:53;9.53;;;1.70;;
39890;SDS011;25564;53.312;9.790;2023-03-08T14:43:25;2.83;;;1.50;;
39890;SDS011;25564;53.312;9.790;2023-03-08T14:46:01;2.93;;;1.70;;
39890;SDS011;25564;53.312;9.790;2023-03-08T14:48:37;1.47;;;0.97;;
39890;SDS011;25564;53.312;9.790;2023-03-08T14:54:03;3.10;;;1.27;;
39890;SDS011;25564;53.312;9.790;2023-03-08T14:56:36;2.65;;;1.23;;
39890;SDS011;25564;53.312;9.790;2023-03-08T14:59:08;2.77;;;1.67;;
39890;SDS011;25564;53.312;9.790;2023-03-08T15:01:51;5.43;;;1.60;;
39890;SDS011;25564;53.312;9.790;2023-03-08T15:04:23;3.03;;;1.77;;
39890;SDS011;25564;53.312;9.790;2023-03-08T15:06:55;2.67;;;1.53;;
39890;SDS011;25564;53.312;9.790;2023-03-08T15:09:27;2.90;;;2.00;;
39890;SDS011;25564;53.312;9.790;2023-03-08T15:12:00;2.63;;;1.30;;
39890;SDS011;25564;53.312;9.790;2023-03-08T15:14:31;2.20;;;1.50;;
39890;SDS011;25564;53.312;9.790;2023-03-08T15:17:03;2.23;;;1.50;;
39890;SDS011;25564;53.312;9.790;2023-03-08T15:19:34;3.20;;;1.90;;
39890;SDS011;25564;53.312;9.790;2023-03-08T15:22:05;3.07;;;1.60;;
39890;SDS011;25564;53.312;9.790;2023-03-08T15:24:37;3.20;;;1.70;;
39890;SDS011;25564;53.312;9.790;2023-03-08T15:27:13;4.80;;;1.23;;
39890;SDS011;25564;53.312;9.790;2023-03-08T15:32:17;4.10;;;1.47;;
39890;SDS011;25564;53.312;9.790;2023-03-08T15:34:48;4.27;;;2.17;;
39890;SDS011;25564;53.312;9.790;2023-03-08T15:37:19;6.13;;;1.83;;
39890;SDS011;25564;53.312;9.790;2023-03-08T15:39:51;4.77;;;1.53;;
39890;SDS011;25564;53.312;9.790;2023-03-08T15:42:22;3.90;;;1.23;;
39890;SDS011;25564;53.312;9.790;2023-03-08T15:44:54;5.53;;;1.30;;
39890;SDS011;25564;53.312;9.790;2023-03-08T15:47:25;4.57;;;1.50;;
39890;SDS011;25564;53.312;9.790;2023-03-08T15:49:57;2.33;;;1.20;;
39890;SDS011;25564;53.312;9.790;2023-03-08T15:52:28;2.53;;;1.30;;
39890;SDS011;25564;53.312;9.790;2023-03-08T15:55:02;3.17;;;1.30;;
39890;SDS011;25564;53.312;9.790;2023-03-08T15:57:34;3.03;;;1.40;;
39890;SDS011;25564;53.312;9.790;2023-03-08T16:00:08;2.13;;;1.20;;
39890;SDS011;25564;53.312;9.790;2023-03-08T16:02:44;3.27;;;1.70;;
39890;SDS011;25564;53.312;9.790;2023-03-08T16:05:15;2.10;;;1.40;;
39890;SDS011;25564;53.312;9.790;2023-03-08T16:07:56;2.13;;;1.50;;
39890;SDS011;25564;53.312;9.790;2023-03-08T16:10:31;3.10;;;1.33;;
39890;SDS011;25564;53.312;9.790;2023-03-08T16:13:10;4.60;;;1.47;;
39890;SDS011;25564;53.312;9.790;2023-03-08T16:15:41;4.63;;;1.40;;
39890;SDS011;25564;53.312;9.790;2023-03-08T16:18:13;9.63;;;1.63;;
39890;SDS011;25564;53.312;9.790;2023-03-08T16:20:44;4.47;;;2.10;;
39890;SDS011;25564;53.312;9.790;2023-03-08T16:23:16;4.13;;;1.40;;
39890;SDS011;25564;53.312;9.790;2023-03-08T16:25:57;2.40;;;1.20;;
39890;SDS011;25564;53.312;9.790;2023-03-08T16:31:17;2.07;;;1.10;;
39890;SDS011;25564;53.312;9.790;2023-03-08T16:33:50;5.07;;;1.40;;
39890;SDS011;25564;53.312;9.790;2023-03-08T16:36:22;2.90;;;1.10;;